createdAt,value
2023-04-02T00:00:30.623Z,99093.16
2023-04-02T00:02:58.450Z,99094.25
2023-04-02T00:05:30.339Z,99098.09
2023-04-02T00:07:58.771Z,99103.94
2023-04-02T00:10:26.785Z,99114.78
2023-04-02T00:12:54.459Z,99117.69
2023-04-02T00:15:22.557Z,99116.97
2023-04-02T00:17:50.247Z,99125.88
2023-04-02T00:20:18.021Z,99131.31
2023-04-02T00:22:46.097Z,99131.53
2023-04-02T00:25:13.769Z,99144.94
2023-04-02T00:27:41.513Z,99142.53
2023-04-02T00:30:09.167Z,99145.31
2023-04-02T00:32:36.939Z,99159.66
2023-04-02T00:35:04.990Z,99163.28
2023-04-02T00:37:39.033Z,99167.84
2023-04-02T00:40:07.510Z,99168.19
2023-04-02T00:42:35.308Z,99180.84
2023-04-02T00:45:03.021Z,99187.22
2023-04-02T00:47:31.088Z,99187.38
2023-04-02T00:49:58.820Z,99189.28
2023-04-02T00:52:26.499Z,99193.03
2023-04-02T00:54:54.076Z,99204.00
2023-04-02T00:57:23.496Z,99208.56
2023-04-02T00:59:52.009Z,99209.78
2023-04-02T01:02:19.706Z,99231.06
2023-04-02T01:04:47.482Z,99225.16
2023-04-02T01:07:15.141Z,99231.44
2023-04-02T01:09:43.103Z,99229.03
2023-04-02T01:12:11.062Z,99235.28
2023-04-02T01:14:38.722Z,99238.16
2023-04-02T01:17:06.271Z,99246.13
2023-04-02T01:19:33.990Z,99244.44
2023-04-02T01:22:01.661Z,99254.31
2023-04-02T01:24:29.634Z,99252.72
2023-04-02T01:26:58.042Z,99259.09
2023-04-02T01:29:25.838Z,99268.97
2023-04-02T01:31:53.418Z,99271.00
2023-04-02T01:34:20.994Z,99285.06
2023-04-02T01:36:48.954Z,99280.63
2023-04-02T01:39:16.612Z,99289.41
2023-04-02T01:41:44.201Z,99288.69
2023-04-02T01:44:12.258Z,99302.88
2023-04-02T01:46:39.887Z,99304.81
2023-04-02T01:49:08.394Z,99311.28
2023-04-02T01:51:36.195Z,99312.50
2023-04-02T01:54:03.824Z,99326.91
2023-04-02T01:56:31.689Z,99325.47
2023-04-02T01:58:59.322Z,99324.72
2023-04-02T02:01:27.286Z,99327.59
2023-04-02T02:03:54.903Z,99340.84
2023-04-02T02:06:22.897Z,99342.63
2023-04-02T02:08:50.518Z,99336.50
2023-04-02T02:11:18.078Z,99353.44
2023-04-02T02:13:47.041Z,99362.44
2023-04-02T02:16:14.976Z,99364.38
2023-04-02T02:18:42.624Z,99366.28
2023-04-02T02:21:10.275Z,99364.59
2023-04-02T02:23:37.870Z,99376.13
2023-04-02T02:26:05.468Z,99380.47
2023-04-02T02:28:34.523Z,99386.59
2023-04-02T02:31:02.775Z,99391.06
2023-04-02T02:33:30.420Z,99390.22
2023-04-02T02:35:58.116Z,99400.91
2023-04-02T02:38:26.145Z,99401.03
2023-04-02T02:40:53.973Z,99412.66
2023-04-02T02:43:21.642Z,99410.22
2023-04-02T02:45:49.185Z,99423.47
2023-04-02T02:48:16.758Z,99422.72
2023-04-02T02:50:44.820Z,99427.31
2023-04-02T02:53:12.467Z,99433.41
2023-04-02T02:55:40.031Z,99440.53
2023-04-02T02:58:09.074Z,99444.97
2023-04-02T03:00:36.694Z,99444.13
2023-04-02T03:03:05.052Z,99453.03
2023-04-02T03:05:33.197Z,99452.25
2023-04-02T03:08:01.454Z,99459.38
2023-04-02T03:10:29.084Z,99460.53
2023-04-02T03:12:57.260Z,99469.53
2023-04-02T03:15:25.209Z,99469.75
2023-04-02T03:17:53.007Z,99484.91
2023-04-02T03:20:20.736Z,99481.50
2023-04-02T03:22:48.425Z,99487.88
2023-04-02T03:25:15.999Z,99494.94
2023-04-02T03:27:43.866Z,99496.84
2023-04-02T03:30:11.482Z,99498.72
2023-04-02T03:32:39.069Z,99510.06
2023-04-02T03:35:07.204Z,99507.44
2023-04-02T03:37:34.793Z,99514.59
2023-04-02T03:40:02.784Z,99520.75
2023-04-02T03:42:30.511Z,99522.66
2023-04-02T03:44:58.070Z,99529.75
2023-04-02T03:47:25.678Z,99530.69
2023-04-02T03:49:53.356Z,99535.16
2023-04-02T03:52:21.282Z,99541.38
2023-04-02T03:54:54.089Z,99540.53
2023-04-02T03:57:22.593Z,99548.47
2023-04-02T03:59:50.298Z,99557.38
2023-04-02T04:02:17.955Z,99570.59
2023-04-02T04:04:46.003Z,99571.72
2023-04-02T04:07:13.694Z,99585.25
2023-04-02T04:09:41.256Z,99587.25
2023-04-02T04:12:08.869Z,99593.59
2023-04-02T04:14:36.462Z,99598.25
2023-04-02T04:17:04.954Z,99603.75
2023-04-02T04:19:32.751Z,99605.75
2023-04-02T04:22:00.356Z,99618.31
2023-04-02T04:24:27.957Z,99621.91
2023-04-02T04:26:55.594Z,99630.03
2023-04-02T04:29:23.583Z,99629.19
2023-04-02T04:31:55.339Z,99633.84
2023-04-02T04:34:23.586Z,99632.34
2023-04-02T04:36:55.061Z,99648.41
2023-04-02T04:39:24.533Z,99655.69
2023-04-02T04:41:52.170Z,99654.19
2023-04-02T04:44:19.754Z,99665.81
2023-04-02T04:46:47.398Z,99673.91
2023-04-02T04:49:15.043Z,99684.66
2023-04-02T04:51:42.999Z,99677.69
2023-04-02T04:54:10.560Z,99689.22
2023-04-02T04:56:38.231Z,99695.53
2023-04-02T04:59:05.964Z,99693.94
2023-04-02T05:01:34.033Z,99717.69
2023-04-02T05:04:02.093Z,99713.38
2023-04-02T05:06:29.810Z,99715.16
2023-04-02T05:08:57.425Z,99729.38
2023-04-02T05:11:25.608Z,99726.94
2023-04-02T05:13:53.208Z,99742.06
2023-04-02T05:16:21.188Z,99750.06
2023-04-02T05:18:49.131Z,99750.94
2023-04-02T05:21:16.823Z,99758.06
2023-04-02T05:23:44.786Z,99766.94
2023-04-02T05:26:12.400Z,99771.41
2023-04-02T05:28:40.402Z,99777.78
2023-04-02T05:31:08.310Z,99778.81
2023-04-02T05:33:36.095Z,99796.47
2023-04-02T05:36:03.819Z,99800.06
2023-04-02T05:38:31.549Z,99800.16
2023-04-02T05:40:59.661Z,99808.06
2023-04-02T05:43:27.440Z,99809.97
2023-04-02T05:45:55.484Z,99825.81
2023-04-02T05:48:23.094Z,99824.94
2023-04-02T05:50:51.287Z,99828.69
2023-04-02T05:53:19.222Z,99831.47
2023-04-02T05:55:47.047Z,99836.72
2023-04-02T05:58:34.715Z,99835.88
2023-04-02T06:01:02.679Z,99844.66
2023-04-02T06:03:30.726Z,99838.63
2023-04-02T06:06:00.017Z,99858.13
2023-04-02T06:08:27.641Z,99853.81
2023-04-02T06:10:55.505Z,99857.34
2023-04-02T06:13:23.092Z,99864.53
2023-04-02T06:15:50.731Z,99869.88
2023-04-02T06:18:18.490Z,99883.19
2023-04-02T06:20:46.254Z,99880.63
2023-04-02T06:23:13.915Z,99895.72
2023-04-02T06:25:41.570Z,99896.66
2023-04-02T06:28:09.836Z,99903.63
2023-04-02T06:30:37.525Z,99904.59
2023-04-02T06:33:05.234Z,99907.22
2023-04-02T06:35:32.900Z,99920.41
2023-04-02T06:38:00.582Z,99924.84
2023-04-02T06:40:28.612Z,99921.38
2023-04-02T06:42:59.814Z,99938.03
2023-04-02T06:45:27.526Z,99938.97
2023-04-02T06:47:55.150Z,99941.44
2023-04-02T06:50:23.396Z,99952.94
2023-04-02T06:52:51.361Z,99954.63
2023-04-02T06:55:19.200Z,99953.78
2023-04-02T06:57:47.047Z,99963.47
2023-04-02T07:00:15.003Z,99966.13
2023-04-02T07:02:42.770Z,99978.50
2023-04-02T07:05:11.444Z,99982.06
2023-04-02T07:07:39.484Z,99990.06
2023-04-02T07:10:09.404Z,99996.19
2023-04-02T07:12:37.062Z,99991.84
2023-04-02T07:15:04.866Z,100006.72
2023-04-02T07:17:32.867Z,100010.25
2023-04-02T07:20:00.762Z,100014.50
2023-04-02T07:22:28.444Z,100017.91
2023-04-02T07:24:56.230Z,100030.22
2023-04-02T07:27:23.860Z,100032.03
2023-04-02T07:29:51.980Z,100038.16
2023-04-02T07:32:22.282Z,100036.38
2023-04-02T07:34:50.447Z,100045.91
2023-04-02T07:37:18.173Z,100049.22
2023-04-02T07:39:45.989Z,100055.28
2023-04-02T07:42:13.644Z,100061.22
2023-04-02T07:44:41.624Z,100065.66
2023-04-02T07:47:10.781Z,100074.50
2023-04-02T07:49:38.438Z,100073.41
2023-04-02T07:52:06.213Z,100079.44
2023-04-02T07:54:34.748Z,100082.16
2023-04-02T07:57:02.505Z,100080.47
2023-04-02T07:59:30.229Z,100087.38
2023-04-02T08:01:58.057Z,100093.41
2023-04-02T08:04:25.857Z,100102.13
2023-04-02T08:06:54.722Z,100100.31
2023-04-02T08:09:22.746Z,100112.56
2023-04-02T08:11:50.901Z,100115.38
2023-04-02T08:14:18.687Z,100116.25
2023-04-02T08:16:47.120Z,100128.50
2023-04-02T08:19:15.205Z,100130.22
2023-04-02T08:21:43.038Z,100140.69
2023-04-02T08:24:10.730Z,100137.97
2023-04-02T08:26:38.425Z,100151.84
2023-04-02T08:29:06.133Z,100154.41
2023-04-02T08:31:34.171Z,100159.50
2023-04-02T08:34:02.232Z,100160.38
2023-04-02T08:36:30.055Z,100164.63
2023-04-02T08:38:58.234Z,100164.44
2023-04-02T08:41:28.125Z,100174.94
2023-04-02T08:43:56.403Z,100173.06
2023-04-02T08:46:24.185Z,100187.97
2023-04-02T08:48:51.919Z,100184.56
2023-04-02T08:51:19.674Z,100188.97
2023-04-02T08:53:47.348Z,100193.94
2023-04-02T08:56:18.195Z,100194.50
2023-04-02T08:58:45.887Z,100208.28
2023-04-02T09:01:14.190Z,100202.84
2023-04-02T09:03:42.845Z,100210.50
2023-04-02T09:06:14.287Z,100215.84
2023-04-02T09:08:43.492Z,100215.84
2023-04-02T09:11:11.667Z,100215.78
2023-04-02T09:13:39.579Z,100219.09
2023-04-02T09:16:07.363Z,100225.06
2023-04-02T09:18:35.200Z,100229.31
2023-04-02T09:21:04.005Z,100239.53
2023-04-02T09:23:33.637Z,100239.19
2023-04-02T09:26:04.097Z,100246.09
2023-04-02T09:28:32.632Z,100254.78
2023-04-02T09:31:00.300Z,100256.34
2023-04-02T09:33:28.365Z,100260.41
2023-04-02T09:35:56.319Z,100264.50
2023-04-02T09:38:24.200Z,100264.69
2023-04-02T09:40:52.057Z,100269.03
2023-04-02T09:43:19.778Z,100280.44
2023-04-02T09:45:48.206Z,100278.84
2023-04-02T09:48:15.898Z,100284.72
2023-04-02T09:50:43.861Z,100292.50
2023-04-02T09:53:11.645Z,100295.97
2023-04-02T09:55:39.449Z,100292.31
2023-04-02T09:58:07.744Z,100299.13
2023-04-02T10:00:35.898Z,100304.22
2023-04-02T10:03:04.466Z,100308.59
2023-04-02T10:05:40.432Z,100315.50
2023-04-02T10:08:09.544Z,100317.28
2023-04-02T10:10:38.128Z,100319.00
2023-04-02T10:13:06.084Z,100318.81
2023-04-02T10:15:34.188Z,100338.84
2023-04-02T10:18:02.453Z,100328.09
2023-04-02T10:20:34.001Z,100334.16
2023-04-02T10:23:06.385Z,100348.16
2023-04-02T10:25:34.422Z,100357.81
2023-04-02T10:28:02.886Z,100356.19
2023-04-02T10:30:31.203Z,100358.66
2023-04-02T10:32:59.177Z,100354.97
2023-04-02T10:35:26.975Z,100376.06
2023-04-02T10:37:54.947Z,100379.28
2023-04-02T10:40:22.851Z,100378.19
2023-04-02T10:42:51.001Z,100376.28
2023-04-02T10:45:18.990Z,100391.06
2023-04-02T10:47:47.186Z,100395.31
2023-04-02T10:50:15.141Z,100395.16
2023-04-02T10:52:43.042Z,100397.72
2023-04-02T10:55:11.169Z,100404.03
2023-04-02T10:57:39.276Z,100395.16
2023-04-02T11:00:09.783Z,100403.03
2023-04-02T11:02:37.802Z,100395.66
2023-04-02T11:05:05.979Z,100399.56
2023-04-02T11:07:34.763Z,100403.56
2023-04-02T11:10:03.303Z,100410.50
2023-04-02T11:12:31.156Z,100414.16
2023-04-02T11:14:59.419Z,100414.25
2023-04-02T11:17:27.143Z,100423.13
2023-04-02T11:19:56.745Z,100424.16
2023-04-02T11:22:24.624Z,100427.94
2023-04-02T11:24:52.509Z,100428.00
2023-04-02T11:27:20.305Z,100427.94
2023-04-02T11:29:48.201Z,100428.63
2023-04-02T11:32:16.830Z,100436.44
2023-04-02T11:34:44.704Z,100447.72
2023-04-02T11:37:12.791Z,100448.38
2023-04-02T11:39:40.618Z,100459.00
2023-04-02T11:42:08.454Z,100460.69
2023-04-02T11:44:36.805Z,100468.63
2023-04-02T11:47:04.624Z,100474.72
2023-04-02T11:49:32.976Z,100477.00
2023-04-02T11:52:11.394Z,100482.88
2023-04-02T11:54:40.652Z,100480.25
2023-04-02T11:57:08.481Z,100483.91
2023-04-02T11:59:36.586Z,100489.41
2023-04-02T12:02:04.444Z,100493.06
2023-04-02T12:04:32.323Z,100492.19
2023-04-02T12:07:00.501Z,100501.97
2023-04-02T12:09:28.368Z,100505.56
2023-04-02T12:11:56.308Z,100506.56
2023-04-02T12:14:24.624Z,100514.44
2023-04-02T12:16:53.607Z,100514.44
2023-04-02T12:19:22.341Z,100518.00
2023-04-02T12:21:50.149Z,100526.91
2023-04-02T12:24:18.383Z,100521.34
2023-04-02T12:26:46.908Z,100522.00
2023-04-02T12:29:16.764Z,100524.50
2023-04-02T12:31:45.017Z,100531.50
2023-04-02T12:34:12.835Z,100527.03
2023-04-02T12:36:43.187Z,100527.22
2023-04-02T12:39:11.222Z,100526.38
2023-04-02T12:41:39.114Z,100533.47
2023-04-02T12:44:06.884Z,100539.38
2023-04-02T12:46:34.859Z,100540.91
2023-04-02T12:49:02.824Z,100535.34
2023-04-02T12:51:30.825Z,100540.47
2023-04-02T12:53:58.681Z,100550.88
2023-04-02T12:56:27.320Z,100540.97
2023-04-02T12:58:55.833Z,100548.84
2023-04-02T13:01:24.870Z,100560.94
2023-04-02T13:03:53.098Z,100557.19
2023-04-02T13:06:21.022Z,100555.78
2023-04-02T13:08:49.197Z,100556.97
2023-04-02T13:11:17.291Z,100558.91
2023-04-02T13:13:45.114Z,100555.63
2023-04-02T13:16:13.019Z,100559.63
2023-04-02T13:18:40.861Z,100558.00
2023-04-02T13:21:08.706Z,100563.03
2023-04-02T13:23:36.722Z,100566.34
2023-04-02T13:26:04.916Z,100572.16
2023-04-02T13:28:32.767Z,100572.66
2023-04-02T13:31:00.662Z,100574.88
2023-04-02T13:33:29.240Z,100572.78
2023-04-02T13:35:57.124Z,100577.72
2023-04-02T13:38:25.226Z,100571.28
2023-04-02T13:40:53.107Z,100569.09
2023-04-02T13:43:21.332Z,100574.78
2023-04-02T13:45:49.744Z,100576.13
2023-04-02T13:48:18.676Z,100559.44
2023-04-02T13:50:47.267Z,100572.69
2023-04-02T13:53:15.126Z,100567.38
2023-04-02T13:55:43.084Z,100576.00
2023-04-02T13:58:11.985Z,100570.53
2023-04-02T14:00:39.858Z,100578.91
2023-04-02T14:03:07.868Z,100567.56
2023-04-02T14:05:37.046Z,100583.53
2023-04-02T14:08:05.081Z,100580.50
2023-04-02T14:10:33.201Z,100581.56
2023-04-02T14:13:01.022Z,100581.94
2023-04-02T14:15:29.161Z,100580.53
2023-04-02T14:17:57.180Z,100592.59
2023-04-02T14:20:25.021Z,100588.53
2023-04-02T14:22:53.483Z,100598.09
2023-04-02T14:25:21.318Z,100601.53
2023-04-02T14:27:49.232Z,100602.09
2023-04-02T14:30:17.096Z,100603.50
2023-04-02T14:32:44.996Z,100600.63
2023-04-02T14:35:12.952Z,100604.34
2023-04-02T14:37:40.721Z,100607.41
2023-04-02T14:40:09.267Z,100617.47
2023-04-02T14:42:37.199Z,100610.44
2023-04-02T14:45:05.153Z,100621.53
2023-04-02T14:47:33.866Z,100616.88
2023-04-02T14:50:01.782Z,100616.88
2023-04-02T14:52:29.653Z,100622.09
2023-04-02T14:54:57.973Z,100624.00
2023-04-02T14:57:26.710Z,100636.34
2023-04-02T14:59:54.952Z,100637.69
2023-04-02T15:02:23.086Z,100627.84
2023-04-02T15:04:51.092Z,100625.13
2023-04-02T15:07:19.201Z,100631.47
2023-04-02T15:09:47.725Z,100632.72
2023-04-02T15:12:15.909Z,100635.69
2023-04-02T15:14:43.942Z,100634.94
2023-04-02T15:17:12.020Z,100640.16
2023-04-02T15:19:39.958Z,100636.34
2023-04-02T15:22:09.472Z,100650.72
2023-04-02T15:24:38.153Z,100657.25
2023-04-02T15:27:14.727Z,100653.06
2023-04-02T15:29:52.067Z,100646.13
2023-04-02T15:32:20.018Z,100648.66
2023-04-02T15:34:50.444Z,100643.69
2023-04-02T15:37:18.372Z,100648.59
2023-04-02T15:39:46.386Z,100652.75
2023-04-02T15:42:15.173Z,100664.16
2023-04-02T15:44:43.147Z,100662.69
2023-04-02T15:47:11.574Z,100676.09
2023-04-02T15:49:39.455Z,100681.59
2023-04-02T15:52:07.433Z,100689.09
2023-04-02T15:54:35.214Z,100685.59
2023-04-02T15:57:03.121Z,100691.00
2023-04-02T15:59:31.338Z,100695.34
2023-04-02T16:01:59.258Z,100700.25
2023-04-02T16:04:27.136Z,100705.25
2023-04-02T16:06:55.524Z,100699.47
2023-04-02T16:09:23.427Z,100707.72
2023-04-02T16:11:51.869Z,100716.88
2023-04-02T16:14:20.210Z,100705.84
2023-04-02T16:16:48.148Z,100714.00
2023-04-02T16:19:17.176Z,100730.09
2023-04-02T16:21:45.297Z,100737.47
2023-04-02T16:24:13.639Z,100733.28
2023-04-02T16:26:41.566Z,100738.03
2023-04-02T16:29:09.689Z,100734.69
2023-04-02T16:31:37.637Z,100743.78
2023-04-02T16:34:05.521Z,100746.63
2023-04-02T16:36:34.066Z,100747.75
2023-04-02T16:39:02.016Z,100755.13
2023-04-02T16:41:30.028Z,100758.09
2023-04-02T16:43:57.994Z,100776.84
2023-04-02T16:46:38.327Z,100783.25
2023-04-02T16:49:08.478Z,100784.25
2023-04-02T16:51:36.274Z,100783.44
2023-04-02T16:54:04.365Z,100778.13
2023-04-02T16:56:32.231Z,100794.03
2023-04-02T16:59:00.113Z,100795.91
2023-04-02T17:01:28.696Z,100799.66
2023-04-02T17:03:57.067Z,100800.00
2023-04-02T17:06:25.076Z,100798.63
2023-04-02T17:08:52.919Z,100804.25
2023-04-02T17:11:21.656Z,100806.63
2023-04-02T17:13:49.781Z,100815.22
2023-04-02T17:16:18.625Z,100818.34
2023-04-02T17:18:46.659Z,100825.00
2023-04-02T17:21:14.399Z,100827.25
2023-04-02T17:23:53.210Z,100830.22
2023-04-02T17:26:25.049Z,100835.81
2023-04-02T17:28:53.333Z,100839.72
2023-04-02T17:31:21.406Z,100848.13
2023-04-02T17:33:49.384Z,100847.72
2023-04-02T17:36:17.267Z,100850.81
2023-04-02T17:38:45.856Z,100850.41
2023-04-02T17:41:13.736Z,100864.84
2023-04-02T17:43:43.276Z,100863.44
2023-04-02T17:46:11.178Z,100869.97
2023-04-02T17:48:39.168Z,100870.31
2023-04-02T17:51:07.588Z,100870.72
2023-04-02T17:53:35.457Z,100877.28
2023-04-02T17:56:03.412Z,100882.06
2023-04-02T17:58:31.509Z,100871.91
2023-04-02T18:00:59.898Z,100886.25
2023-04-02T18:03:30.051Z,100883.09
2023-04-02T18:05:58.749Z,100877.97
2023-04-02T18:08:26.560Z,100887.13
2023-04-02T18:10:54.469Z,100888.25
2023-04-02T18:13:22.329Z,100884.09
2023-04-02T18:15:50.492Z,100888.66
2023-04-02T18:18:18.644Z,100894.78
2023-04-02T18:20:46.577Z,100891.25
2023-04-02T18:23:14.561Z,100899.97
2023-04-02T18:25:43.205Z,100908.66
2023-04-02T18:28:11.606Z,100909.44
2023-04-02T18:30:40.014Z,100905.97
2023-04-02T18:33:08.432Z,100912.97
2023-04-02T18:35:36.305Z,100918.25
2023-04-02T18:38:04.176Z,100922.75
2023-04-02T18:40:32.811Z,100919.38
2023-04-02T18:43:01.027Z,100921.50
2023-04-02T18:45:29.279Z,100927.03
2023-04-02T18:47:57.250Z,100926.50
2023-04-02T18:50:25.305Z,100928.53
2023-04-02T18:52:53.706Z,100933.28
2023-04-02T18:55:22.127Z,100937.09
2023-04-02T18:57:49.923Z,100940.00
2023-04-02T19:00:17.963Z,100942.03
2023-04-02T19:02:46.035Z,100942.34
2023-04-02T19:05:14.156Z,100941.88
2023-04-02T19:07:42.998Z,100945.72
2023-04-02T19:10:11.026Z,100949.66
2023-04-02T19:12:39.044Z,100953.50
2023-04-02T19:15:07.280Z,100952.06
2023-04-02T19:17:35.881Z,100956.69
2023-04-02T19:20:04.121Z,100952.50
2023-04-02T19:22:33.740Z,100963.22
2023-04-02T19:25:01.617Z,100966.03
2023-04-02T19:27:29.618Z,100973.31
2023-04-02T19:29:57.920Z,100977.97
2023-04-02T19:32:25.770Z,100977.34
2023-04-02T19:34:53.618Z,100981.91
2023-04-02T19:37:22.265Z,100980.41
2023-04-02T19:39:50.419Z,100981.44
2023-04-02T19:42:18.805Z,100995.63
2023-04-02T19:44:47.061Z,100993.16
2023-04-02T19:47:15.101Z,100997.81
2023-04-02T19:49:42.964Z,100996.22
2023-04-02T19:52:10.869Z,100999.03
2023-04-02T19:54:39.514Z,101000.97
2023-04-02T19:57:07.674Z,100996.84
2023-04-02T19:59:35.864Z,100996.28
2023-04-02T20:02:06.921Z,100999.16
2023-04-02T20:04:34.854Z,101003.78
2023-04-02T20:07:03.375Z,101008.41
2023-04-02T20:09:31.259Z,101004.16
2023-04-02T20:11:59.311Z,101011.31
2023-04-02T20:14:27.633Z,101012.44
2023-04-02T20:16:55.573Z,101019.63
2023-04-02T20:19:24.017Z,101023.22
2023-04-02T20:21:52.168Z,101019.91
2023-04-02T20:24:20.078Z,101028.91
2023-04-02T20:26:47.856Z,101028.22
2023-04-02T20:29:15.883Z,101031.06
2023-04-02T20:31:43.803Z,101033.88
2023-04-02T20:34:12.375Z,101031.38
2023-04-02T20:36:41.379Z,101039.31
2023-04-02T20:39:11.027Z,101042.06
2023-04-02T20:41:38.975Z,101048.28
2023-04-02T20:44:06.704Z,101051.03
2023-04-02T20:46:35.017Z,101052.94
2023-04-02T20:49:03.378Z,101058.31
2023-04-02T20:51:31.172Z,101061.91
2023-04-02T20:53:59.057Z,101061.13
2023-04-02T20:56:27.722Z,101062.09
2023-04-02T20:58:56.962Z,101066.50
2023-04-02T21:01:24.949Z,101069.25
2023-04-02T21:03:52.952Z,101067.59
2023-04-02T21:06:21.314Z,101068.56
2023-04-02T21:08:49.296Z,101076.53
2023-04-02T21:11:17.073Z,101075.84
2023-04-02T21:13:45.041Z,101075.00
2023-04-02T21:16:12.936Z,101085.69
2023-04-02T21:18:40.898Z,101080.56
2023-04-02T21:21:09.067Z,101081.53
2023-04-02T21:23:36.980Z,101084.28
2023-04-02T21:26:06.255Z,101096.66
2023-04-02T21:28:34.159Z,101092.44
2023-04-02T21:31:02.053Z,101102.16
2023-04-02T21:33:29.981Z,101097.94
2023-04-02T21:35:58.164Z,101099.78
2023-04-02T21:38:26.198Z,101096.38
2023-04-02T21:40:53.979Z,101099.09
2023-04-02T21:43:22.365Z,101093.97
2023-04-02T21:45:50.718Z,101100.19
2023-04-02T21:48:18.737Z,101095.09
2023-04-02T21:50:46.923Z,101101.34
2023-04-02T21:53:14.851Z,101098.00
2023-04-02T21:55:42.651Z,101091.91
2023-04-02T21:58:10.722Z,101089.34
2023-04-02T22:00:39.290Z,101098.03
2023-04-02T22:03:07.887Z,101103.38
2023-04-02T22:05:37.390Z,101102.59
2023-04-02T22:08:05.479Z,101106.16
2023-04-02T22:10:33.715Z,101107.03
2023-04-02T22:13:01.848Z,101106.25
2023-04-02T22:15:29.628Z,101103.66
2023-04-02T22:17:57.333Z,101111.53
2023-04-02T22:20:25.129Z,101117.69
2023-04-02T22:22:53.269Z,101115.06
2023-04-02T22:25:20.999Z,101120.38
2023-04-02T22:27:52.054Z,101126.56
2023-04-02T22:30:19.799Z,101123.94
2023-04-02T22:32:47.441Z,101124.03
2023-04-02T22:35:15.477Z,101126.69
2023-04-02T22:37:43.211Z,101132.03
2023-04-02T22:40:10.947Z,101143.41
2023-04-02T22:42:38.609Z,101148.69
2023-04-02T22:45:08.065Z,101154.00
2023-04-02T22:47:36.632Z,101154.06
2023-04-02T22:50:04.715Z,101157.56
2023-04-02T22:52:32.401Z,101161.09
2023-04-02T22:55:00.151Z,101163.75
2023-04-02T22:57:27.956Z,101166.41
2023-04-02T22:59:56.007Z,101165.56
2023-04-02T23:02:23.885Z,101169.09
2023-04-02T23:04:51.519Z,101172.69
2023-04-02T23:07:19.216Z,101176.28
2023-04-02T23:09:47.501Z,101168.47
2023-04-02T23:12:15.589Z,101169.47
2023-04-02T23:14:43.477Z,101180.91
2023-04-02T23:17:11.176Z,101180.09
2023-04-02T23:19:38.881Z,101181.88
2023-04-02T23:22:06.538Z,101169.69
2023-04-02T23:24:34.201Z,101174.06
2023-04-02T23:27:01.875Z,101169.72
2023-04-02T23:29:29.530Z,101178.44
2023-04-02T23:31:57.486Z,101180.25
2023-04-02T23:34:25.094Z,101179.38
2023-04-02T23:36:53.094Z,101188.16
2023-04-02T23:39:22.357Z,101183.88
2023-04-02T23:41:49.990Z,101192.59
2023-04-02T23:44:17.626Z,101194.38
2023-04-02T23:46:45.251Z,101184.81
2023-04-02T23:49:13.461Z,101188.31
2023-04-02T23:51:41.616Z,101186.53
2023-04-02T23:54:09.598Z,101192.59
2023-04-02T23:56:37.139Z,101190.84
2023-04-02T23:59:04.801Z,101189.91
